Time;durP1;ratioP1;P1;durP2;ratioP2;P2;SDS_P1;SDS_P2;PMS_P1;PMS_P2;Temp;Humidity;BMP_temperature;BMP_pressure;BME280_temperature;BME280_humidity;BME280_pressure;Samples;Min_cycle;Max_cycle;Signal;HPM_P1;HPM_P2
2023/08/15 03:00:16;;;;;;;;;;;18.10;99.90;;;;;;6009409;23;20245;31
2023/08/15 03:02:41;;;;;;;;;;;18.10;99.90;;;;;;4973838;28;19926;-76
2023/08/15 03:05:07;;;;;;;;;;;18.10;99.90;;;;;;4977364;28;20360;-74
2023/08/15 03:07:32;;;;;;;;;;;18.10;99.90;;;;;;4977005;28;19922;-77
2023/08/15 03:09:58;;;;;;;;;;;18.10;99.90;;;;;;4976924;28;19985;-76
2023/08/15 03:12:24;;;;;;;;;;;18.10;99.90;;;;;;4958996;28;19922;-76
2023/08/15 03:14:49;;;;;;;;;;;18.10;99.90;;;;;;4957529;29;19962;-77
2023/08/15 03:17:15;;;;;;;;;;;18.20;99.90;;;;;;4959334;28;20018;-75
2023/08/15 03:19:41;;;;;;;;;;;18.20;99.90;;;;;;4957443;29;20371;-76
2023/08/15 03:22:07;;;;;;;;;;;18.20;99.90;;;;;;4958501;28;19970;-75
2023/08/15 03:24:32;;;;;;;;;;;18.20;99.90;;;;;;4957386;29;19923;-76
2023/08/15 03:26:58;;;;;;;;;;;18.20;99.90;;;;;;4957288;29;19933;-75
2023/08/15 03:29:23;;;;;;;;;;;18.20;99.90;;;;;;4957283;29;19922;-75
2023/08/15 03:31:49;;;;;;;;;;;18.20;99.90;;;;;;4957425;28;19922;-77
2023/08/15 03:34:15;;;;;;;;;;;18.30;99.90;;;;;;4957235;29;19927;-75
2023/08/15 03:36:40;;;;;;;;;;;18.30;99.90;;;;;;4957123;29;20300;-75
2023/08/15 03:39:06;;;;;;;;;;;18.30;99.90;;;;;;4957417;29;19927;-75
2023/08/15 03:41:32;;;;;;;;;;;18.30;99.90;;;;;;4958669;28;19929;-76
2023/08/15 03:43:57;;;;;;;;;;;18.30;99.90;;;;;;4957281;29;19968;-75
2023/08/15 03:46:23;;;;;;;;;;;18.30;99.90;;;;;;4958070;29;19977;-75
2023/08/15 03:48:49;;;;;;;;;;;18.30;99.90;;;;;;4956913;29;20104;-76
2023/08/15 03:51:14;;;;;;;;;;;18.20;99.90;;;;;;4956817;28;20395;-75
2023/08/15 03:53:40;;;;;;;;;;;18.20;99.90;;;;;;4955523;28;19978;-75
2023/08/15 03:56:05;;;;;;;;;;;18.20;99.90;;;;;;4956727;29;19922;-76
2023/08/15 03:58:31;;;;;;;;;;;18.20;99.90;;;;;;4956819;29;20214;-75
2023/08/15 04:00:56;;;;;;;;;;;18.20;99.90;;;;;;4957796;28;19962;-75
2023/08/15 04:03:22;;;;;;;;;;;18.10;99.90;;;;;;4956648;29;19927;-75
2023/08/15 04:05:48;;;;;;;;;;;18.10;99.90;;;;;;4958455;28;19922;-76
2023/08/15 04:08:14;;;;;;;;;;;18.10;99.90;;;;;;4956935;29;20012;-75
2023/08/15 04:10:40;;;;;;;;;;;18.00;99.90;;;;;;4956557;28;20054;-74
2023/08/15 04:13:09;;;;;;;;;;;18.00;99.90;;;;;;4957836;28;19993;-76
2023/08/15 04:15:35;;;;;;;;;;;18.00;99.90;;;;;;4956413;29;20519;-76
2023/08/15 04:18:04;;;;;;;;;;;18.00;99.90;;;;;;4956385;29;20005;-76
2023/08/15 04:20:30;;;;;;;;;;;18.00;99.90;;;;;;4956376;28;19970;-76
2023/08/15 04:22:56;;;;;;;;;;;17.90;99.90;;;;;;4956251;28;19970;-76
2023/08/15 04:25:21;;;;;;;;;;;18.00;99.90;;;;;;4956097;29;19937;-76
2023/08/15 04:27:47;;;;;;;;;;;18.00;99.90;;;;;;4957505;28;19922;-75
2023/08/15 04:30:13;;;;;;;;;;;17.90;99.90;;;;;;4957886;28;19960;-75
2023/08/15 04:32:38;;;;;;;;;;;17.90;99.90;;;;;;4955892;29;19928;-73
2023/08/15 04:35:04;;;;;;;;;;;17.90;99.90;;;;;;4957073;28;20013;-74
2023/08/15 04:37:30;;;;;;;;;;;17.90;99.90;;;;;;4956327;29;19950;-75
2023/08/15 04:39:55;;;;;;;;;;;17.90;99.90;;;;;;4956350;29;19922;-75
2023/08/15 04:42:21;;;;;;;;;;;17.90;99.90;;;;;;4955803;28;19926;-74
2023/08/15 04:44:46;;;;;;;;;;;17.80;99.90;;;;;;4955688;29;19969;-75
2023/08/15 04:47:12;;;;;;;;;;;17.90;99.90;;;;;;4956004;29;19923;-75
2023/08/15 04:49:38;;;;;;;;;;;17.80;99.90;;;;;;4956922;28;19929;-75
2023/08/15 04:52:04;;;;;;;;;;;17.80;99.90;;;;;;4955520;28;19930;-75
2023/08/15 04:54:30;;;;;;;;;;;17.80;99.90;;;;;;4957006;28;19922;-74
2023/08/15 04:56:55;;;;;;;;;;;17.80;99.90;;;;;;4955639;29;19923;-75
2023/08/15 04:59:21;;;;;;;;;;;17.80;99.90;;;;;;4957661;28;19923;-73
2023/08/15 05:01:46;;;;;;;;;;;17.80;99.90;;;;;;4955296;28;19926;-74
2023/08/15 05:04:12;;;;;;;;;;;17.80;99.90;;;;;;4956280;29;19922;-79
2023/08/15 05:06:38;;;;;;;;;;;17.80;99.90;;;;;;4955499;28;19922;-78
2023/08/15 05:09:04;;;;;;;;;;;17.80;99.90;;;;;;4955565;29;19958;-78
2023/08/15 05:11:30;;;;;;;;;;;17.80;99.90;;;;;;4956180;28;20013;-76
2023/08/15 05:13:55;;;;;;;;;;;17.70;99.90;;;;;;4955634;28;19922;-76
2023/08/15 05:16:21;;;;;;;;;;;17.80;99.90;;;;;;4954636;29;20273;-77
2023/08/15 05:18:46;;;;;;;;;;;17.70;99.90;;;;;;4955506;28;19969;-76
2023/08/15 05:21:12;;;;;;;;;;;17.70;99.90;;;;;;4955633;28;20328;-78
2023/08/15 05:23:37;;;;;;;;;;;17.70;99.90;;;;;;4953924;29;19927;-76
2023/08/15 05:26:03;;;;;;;;;;;17.70;99.90;;;;;;4954596;29;20367;-78
2023/08/15 05:28:28;;;;;;;;;;;17.70;99.90;;;;;;4955592;29;19966;-78
2023/08/15 05:30:54;;;;;;;;;;;17.70;99.90;;;;;;4955240;28;20009;-78
2023/08/15 05:33:19;;;;;;;;;;;17.70;99.90;;;;;;4955044;29;19922;-76
2023/08/15 05:35:45;;;;;;;;;;;17.70;99.90;;;;;;4954975;29;19926;-78
2023/08/15 05:38:10;;;;;;;;;;;17.70;99.90;;;;;;4954969;29;19929;-76
2023/08/15 05:40:38;;;;;;;;;;;17.70;99.90;;;;;;4955379;28;20284;-74
2023/08/15 05:43:03;;;;;;;;;;;17.60;99.90;;;;;;4956215;29;19949;-76
2023/08/15 05:45:29;;;;;;;;;;;17.60;99.90;;;;;;4956021;29;20360;-77
2023/08/15 05:47:55;;;;;;;;;;;17.60;99.90;;;;;;4955095;29;20087;-77
2023/08/15 05:50:20;;;;;;;;;;;17.60;99.90;;;;;;4956315;28;20001;-77
2023/08/15 05:52:46;;;;;;;;;;;17.70;99.90;;;;;;4956514;28;20360;-76
2023/08/15 05:55:13;;;;;;;;;;;17.60;99.90;;;;;;4954326;29;20294;-76
2023/08/15 05:57:39;;;;;;;;;;;17.60;99.90;;;;;;4955841;28;19989;-77
2023/08/15 06:00:05;;;;;;;;;;;17.60;99.90;;;;;;4954669;29;19926;-76
2023/08/15 06:02:34;;;;;;;;;;;17.60;99.90;;;;;;4954336;28;19934;-78
2023/08/15 06:05:03;;;;;;;;;;;17.60;99.90;;;;;;4954159;29;19981;-74
2023/08/15 06:07:29;;;;;;;;;;;17.70;99.90;;;;;;4954640;29;19926;-76
2023/08/15 06:09:54;;;;;;;;;;;17.70;99.90;;;;;;4954766;29;19926;-77
2023/08/15 06:12:20;;;;;;;;;;;17.80;99.90;;;;;;4954433;28;19922;-78
2023/08/15 06:14:45;;;;;;;;;;;17.80;99.90;;;;;;4954511;29;20373;-77
2023/08/15 06:17:14;;;;;;;;;;;17.80;99.90;;;;;;4955013;28;19977;-76
2023/08/15 06:19:40;;;;;;;;;;;17.90;99.90;;;;;;4955685;28;19929;-77
2023/08/15 06:22:05;;;;;;;;;;;18.00;99.90;;;;;;4956028;28;19926;-75
2023/08/15 06:24:31;;;;;;;;;;;18.00;99.90;;;;;;4953328;29;19929;-76
2023/08/15 06:26:56;;;;;;;;;;;18.10;99.90;;;;;;4953435;29;19922;-76
2023/08/15 06:29:22;;;;;;;;;;;18.20;99.90;;;;;;4955116;28;19922;-76
2023/08/15 06:31:48;;;;;;;;;;;18.20;99.90;;;;;;4954289;28;20343;-75
2023/08/15 06:34:13;;;;;;;;;;;18.30;99.90;;;;;;4956110;28;19973;-77
2023/08/15 06:36:39;;;;;;;;;;;18.30;99.90;;;;;;4955597;28;19973;-75
2023/08/15 06:39:05;;;;;;;;;;;18.40;99.90;;;;;;4954284;29;20433;-75
2023/08/15 06:41:31;;;;;;;;;;;18.40;99.90;;;;;;4954090;28;19922;-78
2023/08/15 06:43:56;;;;;;;;;;;18.40;99.90;;;;;;4954568;29;19922;-76
2023/08/15 06:46:22;;;;;;;;;;;18.50;99.90;;;;;;4955551;28;19977;-76
2023/08/15 06:48:47;;;;;;;;;;;18.60;99.90;;;;;;4954233;29;20364;-75
2023/08/15 06:51:13;;;;;;;;;;;18.60;99.90;;;;;;4954129;28;19973;-76
2023/08/15 06:53:41;;;;;;;;;;;18.70;99.90;;;;;;4954138;29;19930;-75
2023/08/15 06:56:07;;;;;;;;;;;18.70;99.90;;;;;;4954084;29;19973;-78
2023/08/15 06:58:32;;;;;;;;;;;18.80;99.90;;;;;;4954345;29;19922;-76
2023/08/15 07:00:58;;;;;;;;;;;18.80;99.90;;;;;;4953869;28;20302;-75
2023/08/15 07:03:23;;;;;;;;;;;18.90;99.90;;;;;;4955423;28;20022;-76
2023/08/15 07:05:49;;;;;;;;;;;19.00;99.90;;;;;;4954025;29;19922;-77
2023/08/15 07:08:15;;;;;;;;;;;19.10;99.90;;;;;;4953960;29;19926;-76
2023/08/15 07:10:40;;;;;;;;;;;19.10;99.90;;;;;;4953931;28;19954;-76
2023/08/15 07:13:06;;;;;;;;;;;19.20;99.90;;;;;;4955264;28;19923;-75
2023/08/15 07:15:32;;;;;;;;;;;19.20;99.90;;;;;;4954476;29;20345;-76
2023/08/15 07:17:58;;;;;;;;;;;19.20;99.90;;;;;;4954004;29;19978;-75
2023/08/15 07:20:24;;;;;;;;;;;19.30;99.90;;;;;;4953865;28;19997;-75
2023/08/15 07:22:49;;;;;;;;;;;19.30;99.90;;;;;;4953803;29;19928;-76
2023/08/15 07:25:15;;;;;;;;;;;19.30;99.90;;;;;;4953112;29;19934;-76
2023/08/15 07:27:40;;;;;;;;;;;19.40;99.90;;;;;;4953676;28;19942;-73
2023/08/15 07:30:06;;;;;;;;;;;19.40;99.90;;;;;;4958473;28;19973;-77
2023/08/15 07:32:34;;;;;;;;;;;19.40;99.90;;;;;;4957195;28;19945;-75
2023/08/15 07:35:00;;;;;;;;;;;19.40;99.90;;;;;;4957433;29;19922;-76
2023/08/15 07:37:26;;;;;;;;;;;19.50;99.90;;;;;;4957132;29;20043;-75
2023/08/15 07:40:00;;;;;;;;;;;19.50;99.90;;;;;;4956973;29;19922;-75
2023/08/15 07:42:26;;;;;;;;;;;19.60;99.90;;;;;;4957114;28;19926;-76
2023/08/15 07:44:52;;;;;;;;;;;19.60;99.90;;;;;;4956940;29;20384;-75
2023/08/15 07:47:17;;;;;;;;;;;19.60;99.90;;;;;;4956865;29;19922;-74
2023/08/15 07:49:43;;;;;;;;;;;19.70;99.90;;;;;;4958242;28;19922;-77
2023/08/15 07:52:09;;;;;;;;;;;19.70;99.90;;;;;;4958163;28;19923;-74
2023/08/15 07:54:35;;;;;;;;;;;19.70;99.90;;;;;;4958470;29;19933;-77
2023/08/15 07:57:00;;;;;;;;;;;19.60;99.90;;;;;;4958038;28;20010;-75
2023/08/15 07:59:26;;;;;;;;;;;19.60;99.90;;;;;;4957094;29;19922;-76
2023/08/15 08:01:51;;;;;;;;;;;19.60;99.90;;;;;;4957746;28;20380;-77
2023/08/15 08:04:19;;;;;;;;;;;19.70;99.90;;;;;;4958172;28;19922;-77
2023/08/15 08:06:44;;;;;;;;;;;19.70;99.90;;;;;;4957842;28;20013;-73
2023/08/15 08:09:10;;;;;;;;;;;19.80;99.90;;;;;;4956503;29;20400;-76
2023/08/15 08:11:36;;;;;;;;;;;19.80;99.90;;;;;;4957568;28;19930;-75
2023/08/15 08:14:03;;;;;;;;;;;19.90;99.90;;;;;;4956463;29;19923;-75
2023/08/15 08:16:29;;;;;;;;;;;19.90;99.90;;;;;;4956360;29;19933;-76
2023/08/15 08:18:55;;;;;;;;;;;19.90;99.90;;;;;;4956461;29;19926;-75
2023/08/15 08:21:20;;;;;;;;;;;19.80;99.90;;;;;;4972311;28;19922;-76
2023/08/15 08:23:46;;;;;;;;;;;19.80;99.90;;;;;;4957345;28;19926;-75
2023/08/15 08:26:11;;;;;;;;;;;19.80;99.90;;;;;;4957402;28;19923;-75
2023/08/15 08:28:37;;;;;;;;;;;19.90;99.90;;;;;;4956072;29;19923;-76
2023/08/15 08:31:02;;;;;;;;;;;19.90;99.90;;;;;;4957221;28;19967;-76
2023/08/15 08:33:28;;;;;;;;;;;20.00;99.90;;;;;;4956054;29;19922;-75
2023/08/15 08:35:54;;;;;;;;;;;20.10;99.90;;;;;;4956062;29;19922;-77
2023/08/15 08:38:20;;;;;;;;;;;20.20;99.90;;;;;;4956071;29;19922;-77
2023/08/15 08:40:47;;;;;;;;;;;20.30;99.90;;;;;;4955142;28;20323;-77
2023/08/15 08:43:13;;;;;;;;;;;20.30;99.90;;;;;;4955955;29;19993;-75
2023/08/15 08:45:40;;;;;;;;;;;20.40;99.90;;;;;;4956240;29;19929;-76
2023/08/15 08:48:08;;;;;;;;;;;20.50;99.90;;;;;;4957029;28;20038;-74
2023/08/15 08:50:34;;;;;;;;;;;20.60;99.90;;;;;;4955731;28;19961;-77
2023/08/15 08:52:59;;;;;;;;;;;20.60;99.90;;;;;;4955738;29;19922;-75
2023/08/15 08:55:26;;;;;;;;;;;20.70;99.90;;;;;;4957227;28;19993;-78
2023/08/15 08:57:53;;;;;;;;;;;20.70;99.90;;;;;;4955599;29;20372;-77
2023/08/15 09:00:21;;;;;;;;;;;20.80;99.90;;;;;;4955753;28;20009;-76
2023/08/15 09:02:46;;;;;;;;;;;20.70;99.90;;;;;;4955680;29;20379;-75
2023/08/15 09:05:12;;;;;;;;;;;20.70;99.90;;;;;;4955865;29;19934;-75
2023/08/15 09:07:38;;;;;;;;;;;20.60;99.90;;;;;;4955441;29;19929;-76
2023/08/15 09:10:05;;;;;;;;;;;20.60;99.90;;;;;;4955436;29;19922;-75
2023/08/15 09:12:38;;;;;;;;;;;20.60;99.90;;;;;;4956615;28;19930;-75
2023/08/15 09:15:04;;;;;;;;;;;20.60;99.90;;;;;;4955407;29;19923;-76
2023/08/15 09:17:30;;;;;;;;;;;20.70;99.90;;;;;;4956842;28;20101;-74
2023/08/15 09:19:56;;;;;;;;;;;20.80;99.90;;;;;;4955242;29;20449;-76
2023/08/15 09:22:24;;;;;;;;;;;21.00;99.90;;;;;;4956339;28;20013;-76
2023/08/15 09:24:50;;;;;;;;;;;21.00;99.90;;;;;;4955218;29;19922;-76
2023/08/15 09:27:19;;;;;;;;;;;21.00;99.90;;;;;;4955457;29;20336;-74
2023/08/15 09:29:45;;;;;;;;;;;21.00;99.90;;;;;;4956936;28;20013;-74
2023/08/15 09:32:10;;;;;;;;;;;21.00;99.90;;;;;;4955033;28;19958;-76
2023/08/15 09:34:36;;;;;;;;;;;21.00;99.90;;;;;;4956563;28;19930;-75
2023/08/15 09:37:01;;;;;;;;;;;21.00;99.90;;;;;;4955004;29;19922;-74
2023/08/15 09:39:30;;;;;;;;;;;21.00;99.90;;;;;;4955685;28;19923;-75
2023/08/15 09:41:55;;;;;;;;;;;21.10;99.90;;;;;;4953988;28;20416;-76
2023/08/15 09:44:32;;;;;;;;;;;21.10;99.90;;;;;;4954869;29;19966;-76
2023/08/15 09:46:59;;;;;;;;;;;21.20;99.90;;;;;;4970748;28;20022;-77
2023/08/15 09:49:25;;;;;;;;;;;21.30;99.90;;;;;;4955420;28;20402;-75
2023/08/15 09:51:50;;;;;;;;;;;21.40;99.90;;;;;;4955906;28;20060;-74
2023/08/15 09:54:16;;;;;;;;;;;21.30;99.90;;;;;;4954696;29;20053;-75
2023/08/15 09:56:42;;;;;;;;;;;21.20;99.90;;;;;;4955079;29;19929;-76
2023/08/15 09:59:08;;;;;;;;;;;21.20;99.90;;;;;;4956442;28;19950;-75
2023/08/15 10:01:34;;;;;;;;;;;21.20;99.90;;;;;;4955604;28;19922;-79
2023/08/15 10:04:06;;;;;;;;;;;21.30;99.90;;;;;;4954893;29;19977;-77
2023/08/15 10:06:32;;;;;;;;;;;21.40;99.90;;;;;;4954636;29;20396;-76
2023/08/15 10:08:57;;;;;;;;;;;21.40;99.90;;;;;;4956066;28;19922;-74
2023/08/15 10:11:24;;;;;;;;;;;21.50;99.90;;;;;;4955703;28;19923;-77
2023/08/15 10:13:50;;;;;;;;;;;21.50;99.90;;;;;;4954443;29;19923;-78
2023/08/15 10:16:16;;;;;;;;;;;21.50;99.90;;;;;;4954437;28;19922;-74
2023/08/15 10:18:52;;;;;;;;;;;21.50;99.90;;;;;;4954805;29;20368;-74
2023/08/15 10:21:18;;;;;;;;;;;21.50;99.90;;;;;;4955847;28;20352;-75
2023/08/15 10:23:43;;;;;;;;;;;21.60;99.90;;;;;;4955840;28;19926;-74
2023/08/15 10:26:09;;;;;;;;;;;21.70;99.90;;;;;;4954675;29;20005;-75
2023/08/15 10:28:35;;;;;;;;;;;21.90;99.90;;;;;;4954297;29;20402;-74
2023/08/15 10:31:00;;;;;;;;;;;21.90;99.90;;;;;;4954134;29;19926;-75
2023/08/15 10:33:28;;;;;;;;;;;22.00;99.90;;;;;;4954243;29;19929;-76
2023/08/15 10:35:54;;;;;;;;;;;22.00;99.90;;;;;;4954275;29;19929;-77
2023/08/15 10:38:35;;;;;;;;;;;22.00;99.90;;;;;;4955474;28;19923;-79
2023/08/15 10:41:14;;;;;;;;;;;21.90;99.90;;;;;;4954458;29;20296;-78
2023/08/15 10:43:44;;;;;;;;;;;21.70;99.90;;;;;;4954167;29;19926;-76
2023/08/15 10:46:09;;;;;;;;;;;21.70;99.90;;;;;;4955628;28;19953;-76
2023/08/15 10:48:35;;;;;;;;;;;21.70;99.90;;;;;;4954205;29;20375;-77
2023/08/15 10:51:00;;;;;;;;;;;21.60;99.90;;;;;;4986609;28;20265;-80
2023/08/15 10:53:26;;;;;;;;;;;21.60;99.90;;;;;;4953995;29;20419;-78
2023/08/15 10:55:54;;;;;;;;;;;21.50;99.90;;;;;;4955416;28;20304;-75
2023/08/15 10:58:20;;;;;;;;;;;21.50;99.90;;;;;;4954345;29;19926;-77
2023/08/15 11:00:46;;;;;;;;;;;21.50;99.90;;;;;;4954280;28;19922;-76
2023/08/15 11:03:12;;;;;;;;;;;21.50;99.90;;;;;;4954854;28;19977;-78
2023/08/15 11:05:37;;;;;;;;;;;21.50;99.90;;;;;;4959489;28;19923;-74
2023/08/15 11:08:13;;;;;;;;;;;21.40;99.90;;;;;;4958099;29;20399;-77
2023/08/15 11:10:42;;;;;;;;;;;21.30;99.90;;;;;;4957725;28;20018;-76
2023/08/15 11:13:08;;;;;;;;;;;21.00;99.90;;;;;;4954462;28;19973;-76
2023/08/15 11:15:33;;;;;;;;;;;20.90;99.90;;;;;;4957844;28;20355;-76
2023/08/15 11:17:59;;;;;;;;;;;20.80;99.90;;;;;;4957944;28;19997;-77
2023/08/15 11:20:27;;;;;;;;;;;20.70;99.90;;;;;;4958318;28;19981;-77
2023/08/15 11:22:56;;;;;;;;;;;20.70;99.90;;;;;;4957688;29;19977;-78
2023/08/15 11:25:22;;;;;;;;;;;20.80;99.90;;;;;;4957560;29;19923;-76
2023/08/15 11:27:50;;;;;;;;;;;21.00;99.90;;;;;;4957858;29;19922;-77
2023/08/15 11:30:19;;;;;;;;;;;21.10;99.90;;;;;;4957566;28;20009;-77
2023/08/15 11:32:45;;;;;;;;;;;21.10;99.90;;;;;;4957310;29;19922;-77
2023/08/15 11:35:11;;;;;;;;;;;21.30;99.90;;;;;;4957334;28;19949;-77
2023/08/15 11:37:37;;;;;;;;;;;21.40;99.90;;;;;;4957506;28;19926;-77
2023/08/15 11:40:03;;;;;;;;;;;21.60;99.90;;;;;;4957231;29;19929;-78
2023/08/15 11:42:29;;;;;;;;;;;21.70;99.90;;;;;;4958366;28;19927;-77
2023/08/15 11:45:11;;;;;;;;;;;21.60;99.90;;;;;;4957069;28;19926;-77
2023/08/15 11:47:56;;;;;;;;;;;21.60;99.90;;;;;;4957007;29;20380;-76
2023/08/15 11:50:29;;;;;;;;;;;21.60;99.90;;;;;;4957148;28;19923;-79
2023/08/15 11:52:54;;;;;;;;;;;21.50;99.90;;;;;;4958333;28;20293;-76
2023/08/15 11:55:20;;;;;;;;;;;21.40;99.90;;;;;;4958620;28;20050;-74
2023/08/15 11:57:46;;;;;;;;;;;21.40;99.90;;;;;;4957462;29;19923;-75
2023/08/15 12:00:14;;;;;;;;;;;21.30;99.90;;;;;;4957311;29;20296;-76
2023/08/15 12:02:44;;;;;;;;;;;21.30;99.90;;;;;;4957428;29;20383;-76
2023/08/15 12:05:16;;;;;;;;;;;21.30;99.90;;;;;;4958425;28;19977;-77
2023/08/15 12:07:43;;;;;;;;;;;21.20;99.90;;;;;;4956574;29;20344;-75
2023/08/15 12:10:10;;;;;;;;;;;21.10;99.90;;;;;;4957680;28;20288;-76
2023/08/15 12:12:37;;;;;;;;;;;21.10;99.90;;;;;;4954104;28;19926;-77
2023/08/15 12:15:03;;;;;;;;;;;21.00;99.90;;;;;;4955674;28;20005;-75
2023/08/15 12:17:28;;;;;;;;;;;21.00;99.90;;;;;;4958095;28;19973;-77
2023/08/15 12:19:54;;;;;;;;;;;21.00;99.90;;;;;;4956919;29;20344;-75
2023/08/15 12:22:19;;;;;;;;;;;21.10;99.90;;;;;;4956479;28;20398;-75
2023/08/15 12:24:45;;;;;;;;;;;21.10;99.90;;;;;;4956397;29;19926;-76
2023/08/15 12:27:10;;;;;;;;;;;21.10;99.90;;;;;;4957726;28;19922;-76
2023/08/15 12:29:36;;;;;;;;;;;21.10;99.90;;;;;;4957351;28;19922;-74
2023/08/15 12:32:01;;;;;;;;;;;21.10;99.90;;;;;;4957378;28;19922;-75
2023/08/15 12:34:27;;;;;;;;;;;21.20;99.90;;;;;;4956279;29;20053;-76
2023/08/15 12:36:52;;;;;;;;;;;21.30;99.90;;;;;;4957501;28;19974;-76
2023/08/15 12:39:18;;;;;;;;;;;21.40;99.90;;;;;;4957423;28;19965;-74
2023/08/15 12:41:44;;;;;;;;;;;21.50;99.90;;;;;;4955945;28;19987;-76
2023/08/15 12:44:09;;;;;;;;;;;21.40;99.90;;;;;;4957145;28;19922;-74
2023/08/15 12:46:35;;;;;;;;;;;21.10;99.90;;;;;;4957882;28;19972;-76
2023/08/15 12:49:02;;;;;;;;;;;21.10;99.90;;;;;;4957188;28;19923;-73
2023/08/15 12:51:27;;;;;;;;;;;21.00;99.90;;;;;;4956117;28;20368;-75
2023/08/15 12:53:53;;;;;;;;;;;20.90;99.90;;;;;;4956163;29;19962;-75
2023/08/15 12:56:19;;;;;;;;;;;20.90;99.90;;;;;;4955938;29;19923;-75
2023/08/15 12:58:44;;;;;;;;;;;21.00;99.90;;;;;;4955905;29;19923;-73
2023/08/15 13:01:10;;;;;;;;;;;21.10;99.90;;;;;;4957137;28;20026;-77
2023/08/15 13:03:36;;;;;;;;;;;21.30;99.90;;;;;;4955797;28;20466;-75
2023/08/15 13:06:02;;;;;;;;;;;21.40;99.90;;;;;;4956167;29;20284;-75
2023/08/15 13:08:28;;;;;;;;;;;21.60;99.90;;;;;;4956713;29;19970;-74
2023/08/15 13:10:54;;;;;;;;;;;21.60;99.90;;;;;;4955646;28;19929;-77
2023/08/15 13:13:19;;;;;;;;;;;21.70;99.90;;;;;;4955825;29;19972;-74
2023/08/15 13:15:45;;;;;;;;;;;21.70;99.90;;;;;;4957291;28;20016;-77
2023/08/15 13:18:10;;;;;;;;;;;21.60;99.90;;;;;;4955767;29;20013;-79
2023/08/15 13:20:36;;;;;;;;;;;21.60;99.90;;;;;;4955380;28;19922;-78
2023/08/15 13:23:01;;;;;;;;;;;21.70;99.90;;;;;;4955208;28;20404;-76
2023/08/15 13:25:27;;;;;;;;;;;21.70;99.90;;;;;;4955153;28;19922;-76
2023/08/15 13:27:52;;;;;;;;;;;21.80;99.90;;;;;;4956265;28;19931;-75
2023/08/15 13:30:18;;;;;;;;;;;21.80;99.90;;;;;;4955218;28;20017;-75
2023/08/15 13:32:43;;;;;;;;;;;21.90;99.90;;;;;;4955333;29;19922;-75
2023/08/15 13:35:09;;;;;;;;;;;21.90;99.90;;;;;;4955139;29;20388;-78
2023/08/15 13:37:34;;;;;;;;;;;22.10;99.90;;;;;;4955703;29;19927;-76
2023/08/15 13:40:00;;;;;;;;;;;22.20;99.90;;;;;;4955746;28;19922;-74
2023/08/15 13:42:26;;;;;;;;;;;22.20;99.90;;;;;;4954903;28;19933;-75
2023/08/15 13:44:51;;;;;;;;;;;22.10;99.90;;;;;;4954739;29;20336;-75
2023/08/15 13:47:17;;;;;;;;;;;22.00;99.90;;;;;;4954826;29;20300;-76
2023/08/15 13:49:42;;;;;;;;;;;22.00;99.90;;;;;;4956470;28;20018;-75
2023/08/15 13:52:08;;;;;;;;;;;21.90;99.90;;;;;;4954790;28;19945;-76
2023/08/15 13:54:33;;;;;;;;;;;21.90;99.90;;;;;;4956224;28;19930;-76
2023/08/15 13:56:59;;;;;;;;;;;21.90;99.90;;;;;;4956336;28;19923;-75
2023/08/15 13:59:24;;;;;;;;;;;22.00;99.90;;;;;;4955020;29;19980;-75
2023/08/15 14:01:50;;;;;;;;;;;22.00;99.90;;;;;;4955071;28;19926;-73
2023/08/15 14:04:15;;;;;;;;;;;22.10;99.90;;;;;;4955395;29;19930;-76
2023/08/15 14:06:41;;;;;;;;;;;22.10;99.90;;;;;;4956814;28;19923;-75
2023/08/15 14:09:06;;;;;;;;;;;22.20;99.90;;;;;;4955132;29;19922;-74
2023/08/15 14:11:32;;;;;;;;;;;22.40;99.90;;;;;;4956596;28;19929;-76
2023/08/15 14:13:57;;;;;;;;;;;22.30;99.90;;;;;;4970946;28;19962;-75
2023/08/15 14:16:23;;;;;;;;;;;22.20;99.90;;;;;;4955930;28;19930;-76
2023/08/15 14:18:48;;;;;;;;;;;22.20;99.90;;;;;;4956549;28;19923;-74
2023/08/15 14:21:14;;;;;;;;;;;22.40;99.90;;;;;;4954428;28;20281;-75
2023/08/15 14:23:44;;;;;;;;;;;22.50;99.90;;;;;;4955199;29;19926;-77
2023/08/15 14:26:10;;;;;;;;;;;22.50;99.90;;;;;;4954572;29;19965;-71
2023/08/15 14:28:35;;;;;;;;;;;22.50;99.90;;;;;;4955734;28;19927;-75
2023/08/15 14:31:04;;;;;;;;;;;22.70;99.90;;;;;;4955789;28;19949;-75
2023/08/15 14:33:30;;;;;;;;;;;22.70;99.90;;;;;;4955415;29;20377;-75
2023/08/15 14:35:56;;;;;;;;;;;22.90;99.90;;;;;;4955769;28;19965;-75
2023/08/15 14:38:22;;;;;;;;;;;22.80;99.90;;;;;;4955400;28;19930;-75
2023/08/15 14:40:47;;;;;;;;;;;22.60;99.90;;;;;;4959396;28;19922;-75
2023/08/15 14:43:13;;;;;;;;;;;22.50;99.90;;;;;;4959271;28;20379;-74
2023/08/15 14:45:38;;;;;;;;;;;22.50;99.90;;;;;;4959323;28;20042;-75
2023/08/15 14:48:04;;;;;;;;;;;22.70;99.90;;;;;;4958060;29;19944;-74
2023/08/15 14:50:31;;;;;;;;;;;22.90;99.90;;;;;;4958311;28;19945;-74
2023/08/15 14:52:56;;;;;;;;;;;22.90;99.90;;;;;;4959225;28;19922;-75
2023/08/15 14:55:23;;;;;;;;;;;23.00;99.90;;;;;;4957973;29;19929;-74
2023/08/15 14:57:49;;;;;;;;;;;23.20;99.90;;;;;;4959109;28;19929;-74
2023/08/15 15:00:14;;;;;;;;;;;23.20;99.90;;;;;;4959414;28;20373;-75
2023/08/15 15:02:42;;;;;;;;;;;23.40;99.90;;;;;;4957752;29;19926;-75
2023/08/15 15:05:08;;;;;;;;;;;23.50;99.90;;;;;;4958119;29;19923;-75
2023/08/15 15:07:34;;;;;;;;;;;23.50;99.90;;;;;;4957700;29;19923;-75
2023/08/15 15:10:00;;;;;;;;;;;23.40;99.90;;;;;;4958949;28;19923;-74
2023/08/15 15:12:26;;;;;;;;;;;23.40;99.90;;;;;;4957585;28;20379;-74
2023/08/15 15:14:51;;;;;;;;;;;23.30;99.90;;;;;;4957575;29;19922;-76
2023/08/15 15:17:17;;;;;;;;;;;23.10;99.90;;;;;;4957711;29;19922;-75
2023/08/15 15:19:42;;;;;;;;;;;22.90;99.90;;;;;;4959284;28;19922;-75
2023/08/15 15:22:08;;;;;;;;;;;23.00;99.90;;;;;;4958629;28;19965;-73
2023/08/15 15:24:33;;;;;;;;;;;23.10;99.90;;;;;;4957646;29;19926;-75
2023/08/15 15:26:59;;;;;;;;;;;23.20;99.90;;;;;;4959619;28;20265;-75
2023/08/15 15:29:24;;;;;;;;;;;23.30;99.90;;;;;;4957333;29;20339;-75
2023/08/15 15:31:50;;;;;;;;;;;23.30;99.90;;;;;;4958661;28;19929;-76
2023/08/15 15:34:16;;;;;;;;;;;23.40;99.90;;;;;;4958000;29;19922;-77
2023/08/15 15:36:41;;;;;;;;;;;23.40;99.90;;;;;;4958714;28;19998;-73
2023/08/15 15:39:07;;;;;;;;;;;23.20;99.90;;;;;;4957297;29;19970;-75
2023/08/15 15:41:33;;;;;;;;;;;23.10;99.90;;;;;;4957080;28;19923;-74
2023/08/15 15:43:59;;;;;;;;;;;23.00;99.90;;;;;;4957137;29;19926;-75
2023/08/15 15:46:24;;;;;;;;;;;23.00;99.90;;;;;;4958223;28;20308;-74
2023/08/15 15:48:50;;;;;;;;;;;22.90;99.90;;;;;;4956791;28;20281;-74
2023/08/15 15:51:15;;;;;;;;;;;23.00;99.90;;;;;;4958677;28;19944;-74
2023/08/15 15:53:41;;;;;;;;;;;23.20;99.90;;;;;;4958907;28;20263;-74
2023/08/15 15:56:07;;;;;;;;;;;23.10;99.90;;;;;;4958328;28;19926;-74
2023/08/15 15:58:32;;;;;;;;;;;23.20;99.90;;;;;;4956938;29;19974;-75
2023/08/15 16:00:58;;;;;;;;;;;23.30;99.90;;;;;;4956571;28;20013;-74
2023/08/15 16:03:24;;;;;;;;;;;23.30;99.90;;;;;;4956844;29;20336;-75
2023/08/15 16:05:50;;;;;;;;;;;23.30;99.90;;;;;;4956700;29;19923;-75
2023/08/15 16:08:15;;;;;;;;;;;23.20;99.90;;;;;;4956705;29;19953;-74
2023/08/15 16:10:41;;;;;;;;;;;23.20;99.90;;;;;;4956762;28;19922;-74
2023/08/15 16:13:07;;;;;;;;;;;23.10;99.90;;;;;;4956882;29;19930;-76
2023/08/15 16:15:32;;;;;;;;;;;23.00;99.90;;;;;;4956502;29;19923;-74
2023/08/15 16:17:58;;;;;;;;;;;23.00;99.90;;;;;;4956776;29;19926;-74
2023/08/15 16:20:23;;;;;;;;;;;22.90;99.90;;;;;;4956782;28;19937;-74
2023/08/15 16:22:49;;;;;;;;;;;22.90;99.90;;;;;;4956470;29;19927;-73
2023/08/15 16:25:15;;;;;;;;;;;22.90;99.90;;;;;;4956576;29;19942;-74
2023/08/15 16:27:40;;;;;;;;;;;22.80;99.90;;;;;;4956576;29;19922;-74
2023/08/15 16:30:06;;;;;;;;;;;22.80;99.90;;;;;;4956828;29;19929;-76
2023/08/15 16:32:32;;;;;;;;;;;22.60;99.90;;;;;;4956085;28;20021;-74
2023/08/15 16:34:57;;;;;;;;;;;22.70;99.90;;;;;;4956520;29;19923;-74
2023/08/15 16:37:23;;;;;;;;;;;22.60;99.90;;;;;;4957860;28;19945;-74
2023/08/15 16:39:48;;;;;;;;;;;22.60;99.90;;;;;;4956325;29;19923;-74
2023/08/15 16:42:14;;;;;;;;;;;22.60;99.90;;;;;;4956113;28;19932;-74
2023/08/15 16:44:39;;;;;;;;;;;22.50;99.90;;;;;;4955945;29;19923;-74
2023/08/15 16:47:05;;;;;;;;;;;22.40;99.90;;;;;;4956227;29;19926;-74
2023/08/15 16:49:31;;;;;;;;;;;22.50;99.90;;;;;;4957757;28;20371;-74
2023/08/15 16:51:56;;;;;;;;;;;22.40;99.90;;;;;;4956059;28;19922;-73
2023/08/15 16:54:22;;;;;;;;;;;22.50;99.90;;;;;;4956067;28;19923;-74
2023/08/15 16:56:48;;;;;;;;;;;22.40;99.90;;;;;;4956004;29;19962;-74
2023/08/15 16:59:14;;;;;;;;;;;22.40;99.90;;;;;;4955903;29;19923;-73
2023/08/15 17:01:39;;;;;;;;;;;22.30;99.90;;;;;;4956101;28;20319;-73
2023/08/15 17:04:05;;;;;;;;;;;22.20;99.90;;;;;;4957260;28;19930;-74
2023/08/15 17:06:30;;;;;;;;;;;22.10;99.90;;;;;;4955556;29;19922;-74
2023/08/15 17:08:56;;;;;;;;;;;21.90;99.90;;;;;;4957071;28;20005;-74